Santa Rosa Beach, Florida
Current Conditions -  °F | °C
As of 7:53 PM on Wednesday 26 Nov 2014 (Local Time) from KDTS Reporting Station
Clear Clear  
Wind Chill: 55°   Ceiling: Unl
Heat Index: 55°   Visibility: 10mi
Dew Point: 43°   Wind: 0mph
Humidity: 64%   Direction: NA
Pressure: 30.21"   Gusts: NA
Location:  30.4°N, 86.23°W
Report Text: KDTS 270153Z AUTO 00000KT 10SM CLR 13/06 A3021 RMK AO2 SLP228 T01280061 TSNO
Loading
Personal Weather Stations






























Interactive Weather Map New forecast layout! Learn more

10-Day Weather Forecast

Advertisements
Track Severe Weather on mobile